Terminal Aerodrome Forecast
Issued by NWS

Home | Current Version | Previous Version | Text Only | Print | Product List | Glossary On
Versions: 1 2 3 4 5 6 7 8 9 10 11 12 13 14 15 16 17 18 19 20 21 22 23 24 25 26 27
979
FTUS41 KBUF 230213 AAB
TAFIAG
TAF AMD
KIAG 230213Z 2302/2324 19008KT 5SM BR OVC025
     FM230700 21010KT 2SM BR OVC008
     FM231300 24018G26KT 1/2SM FG OVC003
     FM231700 27012KT P6SM BKN015
     FM232200 33006KT P6SM BKN040=

USA.gov is the U.S. government's official web portal to all federal, state and local government web resources and services.